createdAt,value
2018-09-04T00:00:46.335Z,4.17
2018-09-04T00:03:19.762Z,4.90
2018-09-04T00:05:49.954Z,4.90
2018-09-04T00:08:19.979Z,4.90
2018-09-04T00:10:50.279Z,4.80
2018-09-04T00:13:20.391Z,4.73
2018-09-04T00:15:50.842Z,4.60
2018-09-04T00:18:20.880Z,4.77
2018-09-04T00:20:51.015Z,4.67
2018-09-04T00:23:21.826Z,4.70
2018-09-04T00:25:52.354Z,4.27
2018-09-04T00:28:22.458Z,5.40
2018-09-04T00:30:52.809Z,4.90
2018-09-04T00:33:35.906Z,4.10
2018-09-04T00:36:06.082Z,4.50
2018-09-04T00:38:36.114Z,4.63
2018-09-04T00:41:06.422Z,4.40
2018-09-04T00:43:36.876Z,4.60
2018-09-04T00:46:06.964Z,4.83
2018-09-04T00:48:37.369Z,4.83
2018-09-04T00:51:06.987Z,4.70
2018-09-04T00:53:37.007Z,5.27
2018-09-04T00:56:06.970Z,4.80
2018-09-04T00:58:37.053Z,4.47
2018-09-04T01:01:07.040Z,4.67
2018-09-04T01:03:37.626Z,4.83
2018-09-04T01:06:08.046Z,4.30
2018-09-04T01:08:38.230Z,5.00
2018-09-04T01:11:08.535Z,4.53
2018-09-04T01:13:46.110Z,4.47
2018-09-04T01:16:17.151Z,5.00
2018-09-04T01:18:48.006Z,4.27
2018-09-04T01:21:18.593Z,4.50
2018-09-04T01:23:49.178Z,5.33
2018-09-04T01:26:19.596Z,4.57
2018-09-04T01:28:50.057Z,4.97
2018-09-04T01:31:20.154Z,4.57
2018-09-04T01:33:50.308Z,4.23
2018-09-04T01:36:20.683Z,5.17
2018-09-04T01:38:50.724Z,5.27
2018-09-04T01:41:21.058Z,4.90
2018-09-04T01:43:51.774Z,6.13
2018-09-04T01:46:22.137Z,4.87
2018-09-04T01:48:53.251Z,5.03
2018-09-04T01:51:23.363Z,4.73
2018-09-04T01:53:53.353Z,5.10
2018-09-04T01:56:23.448Z,5.17
2018-09-04T01:58:53.769Z,5.40
2018-09-04T02:01:23.836Z,5.47
2018-09-04T02:03:54.171Z,5.20
2018-09-04T02:06:24.321Z,5.90
2018-09-04T02:08:54.349Z,5.73
2018-09-04T02:11:24.375Z,4.83
2018-09-04T02:13:54.842Z,5.80
2018-09-04T02:16:25.323Z,4.63
2018-09-04T02:18:55.327Z,5.00
2018-09-04T02:21:25.482Z,4.83
2018-09-04T02:23:55.582Z,4.70
2018-09-04T02:26:25.649Z,6.60
2018-09-04T02:28:55.891Z,4.90
2018-09-04T02:31:26.014Z,4.83
2018-09-04T02:33:56.366Z,5.30
2018-09-04T02:36:26.490Z,4.90
2018-09-04T02:38:56.825Z,4.60
2018-09-04T02:41:27.011Z,4.90
2018-09-04T02:43:57.386Z,4.90
2018-09-04T02:46:27.665Z,4.70
2018-09-04T02:48:57.724Z,4.70
2018-09-04T02:51:28.035Z,5.27
2018-09-04T02:53:58.387Z,6.30
2018-09-04T02:56:28.637Z,6.30
2018-09-04T02:58:59.062Z,5.67
2018-09-04T03:01:29.466Z,5.20
2018-09-04T03:03:59.968Z,5.60
2018-09-04T03:06:30.129Z,6.30
2018-09-04T03:09:00.554Z,6.03
2018-09-04T03:11:30.790Z,6.10
2018-09-04T03:14:01.197Z,5.93
2018-09-04T03:16:31.298Z,5.70
2018-09-04T03:19:01.561Z,5.90
2018-09-04T03:21:31.746Z,5.93
2018-09-04T03:24:01.676Z,5.80
2018-09-04T03:26:31.788Z,5.97
2018-09-04T03:29:02.103Z,5.70
2018-09-04T03:31:32.198Z,6.47
2018-09-04T03:34:02.697Z,5.90
2018-09-04T03:36:32.820Z,5.87
2018-09-04T03:39:03.127Z,5.80
2018-09-04T03:41:32.951Z,5.77
2018-09-04T03:44:03.299Z,5.67
2018-09-04T03:46:33.348Z,5.97
2018-09-04T03:49:15.269Z,6.37
2018-09-04T03:51:46.745Z,5.33
2018-09-04T03:54:16.943Z,5.47
2018-09-04T03:56:47.348Z,6.40
2018-09-04T03:59:17.359Z,6.50
2018-09-04T04:01:47.811Z,5.23
2018-09-04T04:04:42.918Z,6.13
2018-09-04T04:07:12.985Z,5.53
2018-09-04T04:09:43.047Z,5.10
2018-09-04T04:12:12.987Z,4.80
2018-09-04T04:14:42.940Z,6.30
2018-09-04T04:17:13.356Z,6.47
2018-09-04T04:19:43.880Z,7.70
2018-09-04T04:22:14.350Z,7.10
2018-09-04T04:24:44.542Z,6.80
2018-09-04T04:27:14.964Z,5.50
2018-09-04T04:29:45.367Z,5.57
2018-09-04T04:32:15.202Z,5.73
2018-09-04T04:34:46.568Z,7.20
2018-09-04T04:37:16.967Z,9.07
2018-09-04T04:39:47.283Z,8.03
2018-09-04T04:42:17.527Z,8.03
2018-09-04T04:44:47.959Z,7.13
2018-09-04T04:47:22.274Z,9.83
2018-09-04T04:49:52.597Z,9.43
2018-09-04T04:52:22.999Z,8.60
2018-09-04T04:54:53.484Z,7.80
2018-09-04T04:57:23.277Z,8.50
2018-09-04T04:59:54.030Z,9.00
2018-09-04T05:02:24.315Z,9.70
2018-09-04T05:04:57.710Z,9.70
2018-09-04T05:07:28.060Z,9.33
2018-09-04T05:09:58.295Z,9.10
2018-09-04T05:12:28.565Z,9.13
2018-09-04T05:14:58.671Z,9.83
2018-09-04T05:17:29.138Z,9.20
2018-09-04T05:19:59.367Z,9.30
2018-09-04T05:22:29.461Z,9.40
2018-09-04T05:24:59.484Z,9.60
2018-09-04T05:27:29.493Z,9.87
2018-09-04T05:29:59.886Z,11.23
2018-09-04T05:32:35.225Z,10.97
2018-09-04T05:35:05.914Z,10.93
2018-09-04T05:37:35.885Z,12.40
2018-09-04T05:40:05.901Z,10.27
2018-09-04T05:42:40.248Z,11.07
2018-09-04T05:45:10.460Z,11.50
2018-09-04T05:47:41.434Z,12.13
2018-09-04T05:50:11.554Z,11.80
2018-09-04T05:52:41.329Z,11.80
2018-09-04T05:55:11.440Z,12.07
2018-09-04T05:57:41.322Z,13.37
2018-09-04T06:00:15.877Z,14.70
2018-09-04T06:02:45.437Z,15.67
2018-09-04T06:05:15.348Z,14.97
2018-09-04T06:07:45.401Z,17.10
2018-09-04T06:10:15.361Z,18.33
2018-09-04T06:12:45.369Z,19.00
2018-09-04T06:15:15.381Z,15.57
2018-09-04T06:17:45.438Z,18.43
2018-09-04T06:20:15.400Z,17.73
2018-09-04T06:22:45.424Z,17.60
2018-09-04T06:25:15.437Z,18.67
2018-09-04T06:28:01.749Z,18.67
2018-09-04T06:30:31.601Z,17.47
2018-09-04T06:33:01.602Z,18.67
2018-09-04T06:35:31.518Z,17.60
2018-09-04T06:38:01.537Z,18.07
2018-09-04T06:40:31.527Z,18.70
2018-09-04T06:43:01.533Z,15.70
2018-09-04T06:45:31.545Z,15.43
2018-09-04T06:48:01.181Z,17.53
2018-09-04T06:50:30.764Z,16.73
2018-09-04T06:53:00.666Z,16.83
2018-09-04T06:55:30.592Z,16.77
2018-09-04T06:58:00.664Z,15.70
2018-09-04T07:00:30.581Z,14.50
2018-09-04T07:03:00.194Z,16.27
2018-09-04T07:05:29.768Z,16.30
2018-09-04T07:07:59.718Z,15.33
2018-09-04T07:10:29.661Z,15.57
2018-09-04T07:12:59.684Z,16.40
2018-09-04T07:15:29.721Z,14.37
2018-09-04T07:18:07.306Z,15.37
2018-09-04T07:20:36.903Z,15.97
2018-09-04T07:23:06.826Z,16.00
2018-09-04T07:25:44.888Z,15.60
2018-09-04T07:28:14.721Z,14.83
2018-09-04T07:30:44.821Z,14.53
2018-09-04T07:33:14.773Z,16.23
2018-09-04T07:35:45.330Z,15.07
2018-09-04T07:38:14.850Z,15.37
2018-09-04T07:40:44.794Z,15.43
2018-09-04T07:43:14.426Z,14.07
2018-09-04T07:45:44.417Z,13.53
2018-09-04T07:48:14.014Z,13.67
2018-09-04T07:50:43.993Z,12.73
2018-09-04T07:53:13.925Z,14.00
2018-09-04T07:55:43.927Z,15.20
2018-09-04T07:58:14.939Z,13.90
2018-09-04T08:00:45.108Z,13.87
2018-09-04T08:03:15.022Z,14.20
2018-09-04T08:05:45.146Z,12.93
2018-09-04T08:08:14.982Z,12.67
2018-09-04T08:10:44.932Z,13.27
2018-09-04T08:13:14.929Z,12.60
2018-09-04T08:15:44.957Z,11.93
2018-09-04T08:18:14.981Z,13.03
2018-09-04T08:20:45.050Z,12.57
2018-09-04T08:23:14.994Z,13.40
2018-09-04T08:25:45.001Z,12.10
2018-09-04T08:28:14.973Z,12.33
2018-09-04T08:30:45.029Z,12.80
2018-09-04T08:33:15.090Z,12.43
2018-09-04T08:35:45.046Z,13.03
2018-09-04T08:38:15.105Z,14.03
2018-09-04T08:40:45.136Z,13.20
2018-09-04T08:43:15.235Z,12.70
2018-09-04T08:45:45.672Z,14.33
2018-09-04T08:48:20.687Z,13.97
2018-09-04T08:50:50.258Z,13.60
2018-09-04T08:53:20.182Z,12.95
2018-09-04T08:55:50.153Z,12.75
2018-09-04T08:58:20.207Z,12.37
2018-09-04T09:00:50.169Z,13.45
2018-09-04T09:03:20.230Z,12.35
2018-09-04T09:05:50.212Z,12.28
2018-09-04T09:08:43.357Z,11.95
2018-09-04T09:11:13.437Z,11.60
2018-09-04T09:13:43.250Z,12.03
2018-09-04T09:16:12.844Z,11.68
2018-09-04T09:18:42.329Z,12.03
2018-09-04T09:21:12.271Z,10.88
2018-09-04T09:26:45.896Z,10.45
2018-09-04T09:29:15.431Z,11.80
2018-09-04T09:31:45.309Z,10.23
2018-09-04T09:34:15.366Z,11.33
2018-09-04T09:36:45.544Z,9.75
2018-09-04T09:39:15.393Z,10.32
2018-09-04T09:41:45.608Z,10.23
2018-09-04T09:44:17.371Z,11.10
2018-09-04T09:46:48.045Z,10.20
2018-09-04T09:49:19.527Z,10.20
2018-09-04T09:51:49.621Z,10.15
2018-09-04T09:54:19.619Z,9.43
2018-09-04T09:56:49.438Z,9.85
2018-09-04T09:59:20.462Z,9.68
2018-09-04T10:01:57.876Z,8.73
2018-09-04T10:04:28.033Z,8.85
2018-09-04T10:06:58.065Z,8.95
2018-09-04T10:09:28.062Z,8.13
2018-09-04T10:11:57.577Z,7.35
2018-09-04T10:14:27.596Z,8.45
2018-09-04T10:16:57.608Z,7.37
2018-09-04T10:19:27.582Z,7.83
2018-09-04T10:21:57.797Z,7.55
2018-09-04T10:24:27.805Z,8.38
2018-09-04T10:26:58.541Z,7.35
2018-09-04T10:29:28.616Z,7.55
2018-09-04T10:31:58.772Z,8.95
2018-09-04T10:34:29.657Z,6.85
2018-09-04T10:37:02.186Z,8.15
2018-09-04T10:39:37.261Z,6.50
2018-09-04T10:42:23.616Z,6.15
2018-09-04T10:44:53.097Z,6.17
2018-09-04T10:47:23.652Z,5.58
2018-09-04T10:49:59.893Z,6.00
2018-09-04T10:52:29.729Z,5.33
2018-09-04T10:54:59.101Z,4.72
2018-09-04T10:57:28.933Z,4.92
2018-09-04T10:59:58.257Z,5.17
2018-09-04T11:02:27.740Z,4.70
2018-09-04T11:05:03.225Z,4.87
2018-09-04T11:07:33.010Z,5.17
2018-09-04T11:10:03.404Z,5.20
2018-09-04T11:12:33.206Z,4.40
2018-09-04T11:15:03.412Z,4.08
2018-09-04T11:17:33.265Z,3.98
2018-09-04T11:20:04.104Z,3.87
2018-09-04T11:22:34.838Z,3.80
2018-09-04T11:25:04.484Z,4.37
2018-09-04T11:27:34.486Z,4.00
2018-09-04T11:30:04.530Z,4.15
2018-09-04T11:32:34.358Z,4.00
2018-09-04T11:35:04.115Z,4.22
2018-09-04T11:37:34.374Z,3.98
2018-09-04T11:40:04.143Z,3.80
2018-09-04T11:42:38.058Z,3.75
2018-09-04T11:45:15.090Z,3.37
2018-09-04T11:47:44.681Z,3.25
2018-09-04T11:50:14.570Z,3.60
2018-09-04T11:52:44.417Z,3.83
2018-09-04T11:55:14.801Z,4.33
2018-09-04T11:57:45.160Z,4.20
2018-09-04T12:00:18.994Z,4.60
2018-09-04T12:02:50.121Z,4.00
2018-09-04T12:05:20.672Z,4.42
2018-09-04T12:07:51.163Z,4.12
2018-09-04T12:10:22.096Z,4.03
2018-09-04T12:12:52.412Z,4.20
2018-09-04T12:15:23.207Z,4.50
2018-09-04T12:17:56.739Z,3.67
2018-09-04T12:20:39.759Z,3.62
2018-09-04T12:23:09.757Z,4.10
2018-09-04T12:25:40.637Z,4.10
2018-09-04T12:28:11.380Z,3.70
2018-09-04T12:30:42.322Z,4.00
2018-09-04T12:33:17.427Z,3.90
2018-09-04T12:35:47.518Z,3.00
2018-09-04T12:38:18.933Z,3.65
2018-09-04T12:40:49.850Z,3.67
2018-09-04T12:43:19.844Z,3.17
2018-09-04T12:45:50.286Z,3.30
2018-09-04T12:48:24.092Z,3.15
2018-09-04T12:50:55.520Z,3.58
2018-09-04T12:53:26.379Z,3.40
2018-09-04T12:55:56.412Z,3.50
2018-09-04T12:58:26.464Z,3.50
2018-09-04T13:00:57.387Z,3.45
2018-09-04T13:03:28.932Z,2.85
2018-09-04T13:05:59.026Z,3.30
2018-09-04T13:08:30.570Z,3.70
2018-09-04T13:11:00.426Z,3.15
2018-09-04T13:13:30.645Z,2.92
2018-09-04T13:16:01.524Z,3.30
2018-09-04T13:18:31.644Z,3.62
2018-09-04T13:21:02.625Z,3.42
2018-09-04T13:23:34.499Z,2.92
2018-09-04T13:26:05.050Z,3.77
2018-09-04T13:28:35.587Z,2.90
2018-09-04T13:31:05.633Z,3.50
2018-09-04T13:33:36.091Z,4.00
2018-09-04T13:36:06.538Z,3.37
2018-09-04T13:38:37.316Z,3.70
2018-09-04T13:41:08.126Z,3.83
2018-09-04T13:43:39.654Z,4.03
2018-09-04T13:46:10.231Z,3.60
2018-09-04T13:48:40.683Z,3.85
2018-09-04T13:51:10.780Z,3.72
2018-09-04T13:53:40.771Z,3.92
2018-09-04T13:56:10.774Z,4.35
2018-09-04T13:58:40.913Z,4.17
2018-09-04T14:01:11.202Z,3.95
2018-09-04T14:03:41.351Z,3.95
2018-09-04T14:06:11.728Z,4.00
2018-09-04T14:08:42.360Z,4.30
2018-09-04T14:11:12.742Z,4.53
2018-09-04T14:13:43.021Z,4.20
2018-09-04T14:16:16.758Z,3.70
2018-09-04T14:18:47.320Z,4.10
2018-09-04T14:21:17.399Z,3.60
2018-09-04T14:23:47.903Z,3.22
2018-09-04T14:26:19.987Z,3.40
2018-09-04T14:29:06.424Z,3.70
2018-09-04T14:31:21.372Z,3.83
2018-09-04T14:33:51.598Z,4.33
2018-09-04T14:36:22.947Z,4.10
2018-09-04T14:38:53.500Z,4.05
2018-09-04T14:41:24.523Z,3.92
2018-09-04T14:43:54.870Z,4.35
2018-09-04T14:46:25.098Z,4.15
2018-09-04T14:49:19.088Z,3.62
2018-09-04T14:51:49.123Z,4.30
2018-09-04T14:54:19.039Z,4.15
2018-09-04T14:56:49.465Z,3.90
2018-09-04T14:59:19.972Z,4.10
2018-09-04T15:01:50.131Z,4.40
2018-09-04T15:04:22.093Z,4.55
2018-09-04T15:07:06.208Z,4.12
2018-09-04T15:09:36.258Z,4.05
2018-09-04T15:12:06.731Z,4.55
2018-09-04T15:14:37.198Z,3.87
2018-09-04T15:17:08.055Z,4.85
2018-09-04T15:19:38.328Z,3.98
2018-09-04T15:22:09.089Z,4.78
2018-09-04T15:24:40.068Z,4.67
2018-09-04T15:27:10.212Z,4.37
2018-09-04T15:29:40.558Z,4.72
2018-09-04T15:32:10.869Z,4.65
2018-09-04T15:34:41.101Z,4.50
2018-09-04T15:37:11.719Z,4.83
2018-09-04T15:39:41.785Z,4.43
2018-09-04T15:42:11.754Z,4.87
2018-09-04T15:44:41.791Z,4.95
2018-09-04T15:47:11.810Z,4.13
2018-09-04T15:49:47.116Z,4.67
2018-09-04T15:52:17.825Z,4.95
2018-09-04T15:54:47.872Z,4.53
2018-09-04T15:57:19.415Z,4.95
2018-09-04T15:59:49.878Z,6.15
2018-09-04T16:02:19.867Z,5.87
2018-09-04T16:04:50.524Z,6.25
2018-09-04T16:07:20.572Z,5.40
2018-09-04T16:09:50.655Z,5.12
2018-09-04T16:12:20.883Z,5.10
2018-09-04T16:14:50.932Z,4.85
2018-09-04T16:17:21.356Z,5.70
2018-09-04T16:19:51.828Z,4.30
2018-09-04T16:22:21.662Z,4.87
2018-09-04T16:24:52.079Z,5.10
2018-09-04T16:27:22.098Z,5.20
2018-09-04T16:29:52.064Z,4.97
2018-09-04T16:32:22.459Z,4.75
2018-09-04T16:34:52.203Z,4.87
2018-09-04T16:37:21.647Z,4.78
2018-09-04T16:39:51.309Z,5.65
2018-09-04T16:42:20.942Z,4.75
2018-09-04T16:44:50.595Z,5.53
2018-09-04T16:47:20.375Z,5.00
2018-09-04T16:49:55.887Z,5.83
2018-09-04T16:52:25.788Z,5.10
2018-09-04T16:54:55.766Z,5.10
2018-09-04T16:57:25.676Z,5.53
2018-09-04T16:59:55.293Z,5.60
2018-09-04T17:02:25.030Z,5.22
2018-09-04T17:04:54.837Z,6.30
2018-09-04T17:07:24.667Z,5.50
2018-09-04T17:09:55.620Z,5.73
2018-09-04T17:12:25.730Z,5.43
2018-09-04T17:14:55.338Z,6.03
2018-09-04T17:17:25.592Z,6.27
2018-09-04T17:19:55.205Z,5.50
2018-09-04T17:22:28.867Z,6.37
2018-09-04T17:24:59.043Z,5.97
2018-09-04T17:27:29.715Z,6.53
2018-09-04T17:29:59.598Z,5.77
2018-09-04T17:32:29.306Z,5.90
2018-09-04T17:34:58.974Z,5.97
2018-09-04T17:37:28.658Z,6.97
2018-09-04T17:40:06.631Z,6.07
2018-09-04T17:42:37.159Z,6.27
2018-09-04T17:45:06.902Z,5.97
2018-09-04T17:47:36.594Z,5.47
2018-09-04T17:50:06.324Z,6.17
2018-09-04T17:52:36.186Z,5.90
2018-09-04T17:55:06.133Z,6.10
2018-09-04T17:57:35.867Z,5.50
2018-09-04T18:00:06.322Z,6.13
2018-09-04T18:02:38.110Z,5.73
2018-09-04T18:05:07.802Z,5.80
2018-09-04T18:07:37.718Z,6.37
2018-09-04T18:10:08.540Z,5.93
2018-09-04T18:12:44.981Z,6.00
2018-09-04T18:15:15.463Z,5.67
2018-09-04T18:17:46.833Z,5.60
2018-09-04T18:20:17.214Z,5.83
2018-09-04T18:22:48.237Z,5.40
2018-09-04T18:25:19.518Z,6.40
2018-09-04T18:27:51.987Z,6.20
2018-09-04T18:30:22.566Z,6.27
2018-09-04T18:32:52.530Z,6.13
2018-09-04T18:35:22.615Z,5.73
2018-09-04T18:37:53.142Z,6.37
2018-09-04T18:40:23.238Z,6.67
2018-09-04T18:42:52.897Z,6.30
2018-09-04T18:45:54.156Z,6.17
2018-09-04T18:48:25.540Z,6.27
2018-09-04T18:51:01.898Z,6.80
2018-09-04T18:53:31.516Z,5.83
2018-09-04T18:56:01.179Z,6.67
2018-09-04T18:58:31.053Z,6.40
2018-09-04T19:01:02.201Z,6.37
2018-09-04T19:03:32.293Z,6.70
2018-09-04T19:06:02.014Z,6.50
2018-09-04T19:08:32.106Z,6.97
2018-09-04T19:11:01.877Z,7.77
2018-09-04T19:13:31.591Z,6.80
2018-09-04T19:16:01.606Z,6.63
2018-09-04T19:18:31.611Z,7.97
2018-09-04T19:21:01.434Z,6.53
2018-09-04T19:23:31.114Z,6.50
2018-09-04T19:26:00.860Z,6.27
2018-09-04T19:28:30.697Z,7.23
2018-09-04T19:31:00.441Z,7.07
2018-09-04T19:33:31.420Z,7.50
2018-09-04T19:36:03.190Z,7.57
2018-09-04T19:38:33.065Z,7.47
2018-09-04T19:41:02.779Z,6.63
2018-09-04T19:43:32.494Z,7.60
2018-09-04T19:46:02.197Z,6.97
2018-09-04T19:48:31.918Z,6.50
2018-09-04T19:51:01.803Z,7.20
2018-09-04T19:53:31.547Z,7.00
2018-09-04T19:56:01.271Z,7.77
2018-09-04T19:58:31.019Z,7.60
2018-09-04T20:01:00.935Z,7.83
2018-09-04T20:03:30.656Z,8.07
2018-09-04T20:06:00.466Z,7.27
2018-09-04T20:08:30.684Z,7.47
2018-09-04T20:11:00.506Z,7.37
2018-09-04T20:13:30.554Z,7.97
2018-09-04T20:16:12.106Z,7.90
2018-09-04T20:18:53.265Z,7.27
2018-09-04T20:21:24.176Z,7.17
2018-09-04T20:23:53.925Z,8.40
2018-09-04T20:26:24.057Z,8.07
2018-09-04T20:28:55.248Z,7.57
2018-09-04T20:31:26.010Z,7.60
2018-09-04T20:33:55.619Z,8.27
2018-09-04T20:36:26.983Z,7.80
2018-09-04T20:38:57.419Z,8.03
2018-09-04T20:41:27.266Z,7.07
2018-09-04T20:44:05.072Z,7.83
2018-09-04T20:46:35.772Z,7.77
2018-09-04T20:49:06.058Z,8.40
2018-09-04T20:51:35.972Z,8.53
2018-09-04T20:54:07.553Z,8.80
2018-09-04T20:56:37.310Z,7.93
2018-09-04T20:59:24.680Z,8.17
2018-09-04T21:02:17.450Z,7.30
2018-09-04T21:05:04.023Z,7.67
2018-09-04T21:07:58.156Z,8.10
2018-09-04T21:10:28.076Z,7.80
2018-09-04T21:12:58.208Z,7.20
2018-09-04T21:15:28.847Z,8.03
2018-09-04T21:17:58.668Z,8.17
2018-09-04T21:20:28.482Z,7.73
2018-09-04T21:22:58.262Z,7.90
2018-09-04T21:25:28.214Z,7.07
2018-09-04T21:27:59.244Z,7.80
2018-09-04T21:30:29.380Z,8.30
2018-09-04T21:33:01.037Z,7.43
2018-09-04T21:35:30.906Z,8.20
2018-09-04T21:38:00.835Z,8.20
2018-09-04T21:40:34.899Z,9.00
2018-09-04T21:43:04.639Z,8.13
2018-09-04T21:45:34.394Z,7.73
2018-09-04T21:48:16.119Z,7.93
2018-09-04T21:50:45.970Z,7.73
2018-09-04T21:53:17.464Z,7.30
2018-09-04T21:55:47.471Z,8.83
2018-09-04T21:58:17.255Z,8.60
2018-09-04T22:00:47.594Z,8.93
2018-09-04T22:03:18.963Z,8.97
2018-09-04T22:05:48.819Z,8.37
2018-09-04T22:08:19.039Z,8.10
2018-09-04T22:10:48.855Z,7.97
2018-09-04T22:13:22.059Z,8.07
2018-09-04T22:15:52.665Z,8.33
2018-09-04T22:18:23.101Z,7.83
2018-09-04T22:20:53.262Z,8.87
2018-09-04T22:23:24.688Z,8.20
2018-09-04T22:25:55.199Z,8.50
2018-09-04T22:28:25.705Z,8.63
2018-09-04T22:30:56.310Z,9.23
2018-09-04T22:33:27.678Z,9.03
2018-09-04T22:35:58.159Z,8.70
2018-09-04T22:38:31.201Z,8.50
2018-09-04T22:41:01.428Z,8.93
2018-09-04T22:43:31.429Z,8.43
2018-09-04T22:46:01.815Z,10.37
2018-09-04T22:48:31.838Z,9.43
2018-09-04T22:51:11.283Z,8.90
2018-09-04T22:53:42.294Z,8.73
2018-09-04T22:56:12.843Z,8.77
2018-09-04T22:59:06.259Z,9.63
2018-09-04T23:01:36.942Z,9.03
2018-09-04T23:04:07.331Z,10.83
2018-09-04T23:06:44.935Z,12.13
2018-09-04T23:09:15.499Z,13.27
2018-09-04T23:11:45.926Z,13.03
2018-09-04T23:14:16.300Z,11.67
2018-09-04T23:16:46.542Z,11.90
2018-09-04T23:19:16.964Z,11.47
2018-09-04T23:21:47.471Z,11.67
2018-09-04T23:24:17.985Z,12.13
2018-09-04T23:26:49.768Z,10.27
2018-09-04T23:29:20.483Z,10.67
2018-09-04T23:31:51.062Z,11.43
2018-09-04T23:34:27.459Z,11.10
2018-09-04T23:36:57.205Z,9.63
2018-09-04T23:39:26.882Z,10.23
2018-09-04T23:41:56.849Z,9.47
2018-09-04T23:44:26.515Z,9.77
2018-09-04T23:46:56.334Z,10.57
2018-09-04T23:49:26.102Z,11.17
2018-09-04T23:51:55.810Z,11.23
2018-09-04T23:54:25.651Z,12.07
2018-09-04T23:56:55.553Z,10.37
2018-09-04T23:59:25.234Z,10.73
